createdAt,value
2023-02-18T00:03:12.935Z,96496.41
2023-02-18T00:08:15.505Z,96494.31
2023-02-18T00:13:17.806Z,96499.88
2023-02-18T00:18:20.279Z,96491.28
2023-02-18T00:23:22.863Z,96481.06
2023-02-18T00:28:25.192Z,96498.41
2023-02-18T00:33:27.573Z,96489.00
2023-02-18T00:38:29.887Z,96480.06
2023-02-18T00:43:32.242Z,96485.44
2023-02-18T00:48:34.611Z,96477.44
2023-02-18T00:53:37.206Z,96481.25
2023-02-18T00:58:39.688Z,96480.53
2023-02-18T01:03:41.959Z,96477.94
2023-02-18T01:08:44.332Z,96463.75
2023-02-18T01:13:46.683Z,96463.81
2023-02-18T01:18:49.064Z,96477.03
2023-02-18T01:23:51.362Z,96463.88
2023-02-18T01:28:53.710Z,96474.22
2023-02-18T01:33:56.096Z,96459.78
2023-02-18T01:38:58.445Z,96463.13
2023-02-18T01:44:01.880Z,96462.44
2023-02-18T01:49:04.264Z,96466.66
2023-02-18T01:54:06.553Z,96463.88
2023-02-18T01:59:08.963Z,96454.13
2023-02-18T02:04:11.324Z,96460.13
2023-02-18T02:09:13.720Z,96444.63
2023-02-18T02:14:15.990Z,96458.06
2023-02-18T02:19:18.892Z,96447.50
2023-02-18T02:24:21.259Z,96437.41
2023-02-18T02:29:23.669Z,96436.84
2023-02-18T02:34:26.171Z,96444.75
2023-02-18T02:39:28.473Z,96443.50
2023-02-18T02:44:30.736Z,96441.75
2023-02-18T02:49:33.121Z,96436.81
2023-02-18T02:54:35.638Z,96434.16
2023-02-18T02:59:37.898Z,96420.97
2023-02-18T03:04:40.187Z,96428.97
2023-02-18T03:09:42.454Z,96427.44
2023-02-18T03:14:44.736Z,96416.75
2023-02-18T03:19:47.073Z,96414.66
2023-02-18T03:24:49.335Z,96422.47
2023-02-18T03:29:51.617Z,96416.31
2023-02-18T03:34:53.960Z,96423.81
2023-02-18T03:39:56.387Z,96418.50
2023-02-18T03:44:59.185Z,96409.38
2023-02-18T03:50:01.466Z,96412.63
2023-02-18T03:55:03.986Z,96404.50
2023-02-18T04:00:06.729Z,96397.53
2023-02-18T04:05:09.119Z,96406.19
2023-02-18T04:10:11.591Z,96410.97
2023-02-18T04:15:13.990Z,96407.66
2023-02-18T04:20:16.575Z,96407.50
2023-02-18T04:25:18.852Z,96409.53
2023-02-18T04:30:21.484Z,96407.84
2023-02-18T04:35:23.894Z,96411.59
2023-02-18T04:40:29.916Z,96416.03
2023-02-18T04:45:32.317Z,96411.16
2023-02-18T04:50:34.701Z,96426.75
2023-02-18T04:55:37.013Z,96424.53
2023-02-18T05:00:39.348Z,96414.88
2023-02-18T05:05:42.267Z,96429.50
2023-02-18T05:10:44.630Z,96423.31
2023-02-18T05:15:46.976Z,96405.28
2023-02-18T05:20:49.298Z,96408.22
2023-02-18T05:25:51.582Z,96399.31
2023-02-18T05:30:53.973Z,96404.06
2023-02-18T05:35:56.299Z,96388.25
2023-02-18T05:40:58.629Z,96377.88
2023-02-18T05:46:01.234Z,96397.75
2023-02-18T05:51:03.550Z,96396.88
2023-02-18T05:56:05.932Z,96397.56
2023-02-18T06:01:08.407Z,96396.44
2023-02-18T06:06:11.082Z,96389.31
2023-02-18T06:11:13.825Z,96374.69
2023-02-18T06:16:16.211Z,96402.38
2023-02-18T06:21:18.716Z,96396.28
2023-02-18T06:26:21.066Z,96402.78
2023-02-18T06:31:23.739Z,96416.22
2023-02-18T06:36:26.394Z,96409.84
2023-02-18T06:41:28.703Z,96413.06
2023-02-18T06:46:31.025Z,96407.09
2023-02-18T06:51:33.555Z,96398.53
2023-02-18T06:56:35.880Z,96396.41
2023-02-18T07:01:38.169Z,96392.63
2023-02-18T07:06:40.484Z,96397.47
2023-02-18T07:11:42.811Z,96382.69
2023-02-18T07:16:45.159Z,96390.00
2023-02-18T07:21:47.473Z,96393.13
2023-02-18T07:26:49.767Z,96385.41
2023-02-18T07:31:52.114Z,96402.72
2023-02-18T07:36:54.474Z,96398.41
2023-02-18T07:41:56.758Z,96395.44
2023-02-18T07:46:59.787Z,96369.97
2023-02-18T07:52:03.388Z,96378.66
2023-02-18T07:57:07.781Z,96382.78
2023-02-18T08:02:10.197Z,96377.91
2023-02-18T08:07:12.543Z,96363.63
2023-02-18T08:12:14.963Z,96355.81
2023-02-18T08:17:17.990Z,96334.75
2023-02-18T08:22:20.329Z,96351.38
2023-02-18T08:27:22.620Z,96358.97
2023-02-18T08:32:24.874Z,96347.72
2023-02-18T08:37:27.276Z,96336.19
2023-02-18T08:42:29.571Z,96324.59
2023-02-18T08:48:17.564Z,96317.06
2023-02-18T08:52:54.164Z,96313.81
2023-02-18T08:57:56.490Z,96313.19
2023-02-18T09:02:58.802Z,96315.03
2023-02-18T09:08:01.065Z,96314.59
2023-02-18T09:13:03.352Z,96320.56
2023-02-18T09:18:05.617Z,96328.91
2023-02-18T09:23:07.897Z,96315.78
2023-02-18T09:28:10.206Z,96300.75
2023-02-18T09:33:12.505Z,96297.00
2023-02-18T09:38:15.059Z,96310.16
2023-02-18T09:43:17.359Z,96292.94
2023-02-18T09:48:19.941Z,96298.66
2023-02-18T09:53:22.318Z,96308.34
2023-02-18T09:58:24.919Z,96282.47
2023-02-18T10:03:27.318Z,96267.59
2023-02-18T10:08:29.871Z,96269.41
2023-02-18T10:13:32.337Z,96256.13
2023-02-18T10:18:34.670Z,96238.03
2023-02-18T10:23:37.055Z,96243.25
2023-02-18T10:28:39.410Z,96234.63
2023-02-18T10:33:41.842Z,96229.69
2023-02-18T10:38:44.292Z,96217.25
2023-02-18T10:43:46.636Z,96208.53
2023-02-18T10:48:48.935Z,96194.41
2023-02-18T10:53:51.278Z,96169.63
2023-02-18T10:58:54.664Z,96172.91
2023-02-18T11:03:57.301Z,96154.19
2023-02-18T11:09:02.940Z,96137.44
2023-02-18T11:14:05.310Z,96135.28
2023-02-18T11:19:07.696Z,96124.13
2023-02-18T11:24:09.985Z,96121.75
2023-02-18T11:29:12.517Z,96137.72
2023-02-18T11:34:14.958Z,96121.81
2023-02-18T11:39:17.387Z,96121.78
2023-02-18T11:44:19.871Z,96124.31
2023-02-18T11:49:22.443Z,96128.03
2023-02-18T11:54:24.884Z,96105.22
2023-02-18T11:59:27.215Z,96103.75
2023-02-18T12:04:29.534Z,96094.63
2023-02-18T12:09:32.119Z,96097.53
2023-02-18T12:14:34.764Z,96093.59
2023-02-18T12:19:37.575Z,96100.44
2023-02-18T12:24:40.086Z,96067.16
2023-02-18T12:29:42.527Z,96059.16
2023-02-18T12:34:45.000Z,96050.31
2023-02-18T12:39:47.372Z,96045.19
2023-02-18T12:44:49.802Z,96039.78
2023-02-18T12:49:52.150Z,96059.22
2023-02-18T12:54:54.640Z,96054.81
2023-02-18T12:59:57.018Z,96052.38
2023-02-18T13:04:59.352Z,96045.50
2023-02-18T13:10:01.800Z,96053.69
2023-02-18T13:15:04.218Z,96035.25
2023-02-18T13:20:07.665Z,96064.06
2023-02-18T13:25:10.172Z,96013.06
2023-02-18T13:30:12.537Z,96035.03
2023-02-18T13:35:15.036Z,96023.38
2023-02-18T13:40:17.416Z,96030.03
2023-02-18T13:45:20.118Z,96025.00
2023-02-18T13:50:22.424Z,96024.53
2023-02-18T13:55:24.710Z,96027.63
2023-02-18T14:00:27.006Z,96025.56
2023-02-18T14:05:29.658Z,96002.69
2023-02-18T14:10:32.038Z,96005.91
2023-02-18T14:15:35.389Z,95991.06
2023-02-18T14:20:37.767Z,95994.88
2023-02-18T14:25:40.295Z,95995.91
2023-02-18T14:30:42.701Z,96007.59
2023-02-18T14:35:44.997Z,96023.25
2023-02-18T14:40:47.582Z,95995.59
2023-02-18T14:45:50.137Z,96011.53
2023-02-18T14:50:52.941Z,96014.38
2023-02-18T14:55:55.447Z,95997.25
2023-02-18T15:00:57.863Z,96000.75
2023-02-18T15:06:00.836Z,95996.00
2023-02-18T15:11:03.456Z,95984.38
2023-02-18T15:16:05.945Z,96001.41
2023-02-18T15:21:08.799Z,96013.88
2023-02-18T15:26:11.794Z,96005.50
2023-02-18T15:31:15.624Z,96009.03
2023-02-18T15:36:18.144Z,96008.09
2023-02-18T15:41:20.658Z,96012.41
2023-02-18T15:46:24.072Z,96002.81
2023-02-18T15:51:26.679Z,96012.31
2023-02-18T15:56:29.102Z,96013.97
2023-02-18T16:01:31.472Z,96014.84
2023-02-18T16:06:34.010Z,96018.38
2023-02-18T16:11:36.874Z,96026.47
2023-02-18T16:16:41.028Z,96019.25
2023-02-18T16:21:43.427Z,96028.97
2023-02-18T16:26:46.053Z,96018.78
2023-02-18T16:31:48.623Z,96024.44
2023-02-18T16:37:08.868Z,96016.09
2023-02-18T16:42:11.573Z,96020.97
2023-02-18T16:47:13.964Z,96016.69
2023-02-18T16:52:17.061Z,96027.22
2023-02-18T16:57:19.516Z,96007.84
2023-02-18T17:02:21.890Z,96021.59
2023-02-18T17:07:24.365Z,96037.97
2023-02-18T17:12:26.845Z,96043.66
2023-02-18T17:17:29.198Z,96041.47
2023-02-18T17:22:31.568Z,96061.41
2023-02-18T17:27:33.887Z,96054.69
2023-02-18T17:32:36.282Z,96064.13
2023-02-18T17:37:39.984Z,96063.56
2023-02-18T17:42:42.558Z,96080.81
2023-02-18T17:47:45.147Z,96066.81
2023-02-18T17:52:47.473Z,96081.31
2023-02-18T17:57:49.848Z,96084.28
2023-02-18T18:02:52.178Z,96093.72
2023-02-18T18:07:54.597Z,96096.16
2023-02-18T18:12:57.223Z,96102.34
2023-02-18T18:17:59.588Z,96102.06
2023-02-18T18:23:01.937Z,96094.25
2023-02-18T18:28:04.370Z,96092.66
2023-02-18T18:33:06.762Z,96087.28
2023-02-18T18:38:09.184Z,96066.03
2023-02-18T18:43:11.632Z,96091.03
2023-02-18T18:48:14.115Z,96067.09
2023-02-18T18:53:16.504Z,96071.38
2023-02-18T18:58:20.989Z,96082.69
2023-02-18T19:03:23.353Z,96076.25
2023-02-18T19:08:25.683Z,96081.34
2023-02-18T19:13:28.048Z,96088.59
2023-02-18T19:18:32.390Z,96090.50
2023-02-18T19:23:34.872Z,96093.44
2023-02-18T19:28:37.250Z,96102.56
2023-02-18T19:33:39.665Z,96116.28
2023-02-18T19:38:42.068Z,96119.00
2023-02-18T19:43:44.742Z,96119.53
2023-02-18T19:48:47.035Z,96110.13
2023-02-18T19:53:49.430Z,96120.88
2023-02-18T19:58:51.812Z,96145.91
2023-02-18T20:03:54.522Z,96139.16
2023-02-18T20:08:56.919Z,96156.91
2023-02-18T20:13:59.476Z,96152.63
2023-02-18T20:19:01.941Z,96143.22
2023-02-18T20:24:04.306Z,96155.03
2023-02-18T20:29:06.633Z,96146.47
2023-02-18T20:34:09.854Z,96149.63
2023-02-18T20:39:16.261Z,96145.22
2023-02-18T20:44:21.084Z,96145.31
2023-02-18T20:49:23.527Z,96141.09
2023-02-18T20:54:26.426Z,96157.50
2023-02-18T20:59:29.800Z,96148.63
2023-02-18T21:04:32.643Z,96145.38
2023-02-18T21:09:35.195Z,96150.22
2023-02-18T21:14:37.843Z,96138.63
2023-02-18T21:19:40.326Z,96143.75
2023-02-18T21:24:43.115Z,96138.91
2023-02-18T21:29:45.617Z,96133.81
2023-02-18T21:34:48.187Z,96133.00
2023-02-18T21:39:50.689Z,96135.69
2023-02-18T21:44:53.002Z,96148.06
2023-02-18T21:49:55.402Z,96128.13
2023-02-18T21:54:58.045Z,96142.94
2023-02-18T22:00:11.363Z,96133.25
2023-02-18T22:05:21.445Z,96144.28
2023-02-18T22:10:23.962Z,96136.72
2023-02-18T22:15:26.370Z,96145.88
2023-02-18T22:20:28.849Z,96131.88
2023-02-18T22:25:31.153Z,96144.78
2023-02-18T22:30:33.614Z,96133.75
2023-02-18T22:35:36.049Z,96141.25
2023-02-18T22:40:38.358Z,96123.78
2023-02-18T22:45:41.191Z,96126.72
2023-02-18T22:50:43.563Z,96124.84
2023-02-18T22:55:46.130Z,96135.88
2023-02-18T23:00:48.993Z,96130.75
2023-02-18T23:05:51.368Z,96123.25
2023-02-18T23:10:53.692Z,96130.97
2023-02-18T23:15:56.340Z,96126.66
2023-02-18T23:21:16.321Z,96118.91
2023-02-18T23:26:18.699Z,96121.59
2023-02-18T23:31:21.185Z,96121.53
2023-02-18T23:36:23.707Z,96111.84
2023-02-18T23:41:26.128Z,96121.00
2023-02-18T23:46:28.565Z,96106.44
2023-02-18T23:51:30.874Z,96101.31
2023-02-18T23:56:33.213Z,96091.09
